sensor_id;sensor_type;location;lat;lon;timestamp;pressure;altitude;pressure_sealevel;temperature;humidity
64080;BME280;51042;49.696;10.808;2023-12-22T00:00:29;97026.94;;;3.80;100.00
64080;BME280;51042;49.696;10.808;2023-12-22T00:02:55;97033.88;;;3.81;100.00
64080;BME280;51042;49.696;10.808;2023-12-22T00:05:20;97032.78;;;3.79;100.00
64080;BME280;51042;49.696;10.808;2023-12-22T00:07:45;97028.94;;;3.76;100.00
64080;BME280;51042;49.696;10.808;2023-12-22T00:10:10;97030.97;;;3.72;100.00
64080;BME280;51042;49.696;10.808;2023-12-22T00:12:35;97038.00;;;3.69;100.00
64080;BME280;51042;49.696;10.808;2023-12-22T00:15:03;97039.28;;;3.65;100.00
64080;BME280;51042;49.696;10.808;2023-12-22T00:17:28;97023.09;;;3.61;100.00
64080;BME280;51042;49.696;10.808;2023-12-22T00:19:53;97006.63;;;3.52;100.00
64080;BME280;51042;49.696;10.808;2023-12-22T00:22:20;97019.16;;;3.46;100.00
64080;BME280;51042;49.696;10.808;2023-12-22T00:24:45;97036.84;;;3.35;100.00
64080;BME280;51042;49.696;10.808;2023-12-22T00:27:10;97046.75;;;3.25;100.00
64080;BME280;51042;49.696;10.808;2023-12-22T00:29:35;97060.03;;;3.19;100.00
64080;BME280;51042;49.696;10.808;2023-12-22T00:32:02;97057.09;;;3.10;100.00
64080;BME280;51042;49.696;10.808;2023-12-22T00:34:27;97063.38;;;3.07;100.00
64080;BME280;51042;49.696;10.808;2023-12-22T00:36:52;97068.09;;;3.03;100.00
64080;BME280;51042;49.696;10.808;2023-12-22T00:39:17;97082.41;;;3.04;100.00
64080;BME280;51042;49.696;10.808;2023-12-22T00:41:43;97079.28;;;3.05;100.00
64080;BME280;51042;49.696;10.808;2023-12-22T00:44:08;97078.09;;;3.06;100.00
64080;BME280;51042;49.696;10.808;2023-12-22T00:46:33;97100.47;;;3.10;100.00
64080;BME280;51042;49.696;10.808;2023-12-22T00:48:58;97104.72;;;3.11;100.00
64080;BME280;51042;49.696;10.808;2023-12-22T00:51:23;97087.69;;;3.11;100.00
64080;BME280;51042;49.696;10.808;2023-12-22T00:53:48;97098.09;;;3.12;100.00
64080;BME280;51042;49.696;10.808;2023-12-22T00:56:13;97116.00;;;3.10;100.00
64080;BME280;51042;49.696;10.808;2023-12-22T00:58:39;97110.97;;;3.08;100.00
64080;BME280;51042;49.696;10.808;2023-12-22T01:01:04;97119.09;;;3.08;100.00
64080;BME280;51042;49.696;10.808;2023-12-22T01:03:30;97125.69;;;3.07;100.00
64080;BME280;51042;49.696;10.808;2023-12-22T01:05:55;97113.31;;;3.06;100.00
64080;BME280;51042;49.696;10.808;2023-12-22T01:08:20;97113.75;;;3.05;100.00
64080;BME280;51042;49.696;10.808;2023-12-22T01:10:45;97120.41;;;3.00;100.00
64080;BME280;51042;49.696;10.808;2023-12-22T01:13:10;97127.84;;;2.96;100.00
64080;BME280;51042;49.696;10.808;2023-12-22T01:15:36;97120.53;;;2.93;100.00
64080;BME280;51042;49.696;10.808;2023-12-22T01:18:01;97126.72;;;2.94;100.00
64080;BME280;51042;49.696;10.808;2023-12-22T01:20:26;97156.88;;;2.96;100.00
64080;BME280;51042;49.696;10.808;2023-12-22T01:22:51;97166.47;;;3.00;100.00
64080;BME280;51042;49.696;10.808;2023-12-22T01:25:16;97163.72;;;3.04;100.00
64080;BME280;51042;49.696;10.808;2023-12-22T01:27:42;97181.06;;;3.06;100.00
64080;BME280;51042;49.696;10.808;2023-12-22T01:30:07;97184.91;;;3.09;100.00
64080;BME280;51042;49.696;10.808;2023-12-22T01:32:32;97186.09;;;3.08;100.00
64080;BME280;51042;49.696;10.808;2023-12-22T01:35:00;97177.19;;;3.07;100.00
64080;BME280;51042;49.696;10.808;2023-12-22T01:37:28;97209.34;;;3.05;100.00
64080;BME280;51042;49.696;10.808;2023-12-22T01:39:54;97208.59;;;3.05;100.00
64080;BME280;51042;49.696;10.808;2023-12-22T01:42:19;97217.00;;;3.10;100.00
64080;BME280;51042;49.696;10.808;2023-12-22T01:44:45;97210.69;;;3.17;100.00
64080;BME280;51042;49.696;10.808;2023-12-22T01:47:10;97204.44;;;3.20;100.00
64080;BME280;51042;49.696;10.808;2023-12-22T01:49:35;97214.88;;;3.21;100.00
64080;BME280;51042;49.696;10.808;2023-12-22T01:52:00;97206.31;;;3.23;100.00
64080;BME280;51042;49.696;10.808;2023-12-22T01:54:25;97214.81;;;3.25;100.00
64080;BME280;51042;49.696;10.808;2023-12-22T01:56:51;97214.41;;;3.26;100.00
64080;BME280;51042;49.696;10.808;2023-12-22T01:59:16;97217.44;;;3.28;100.00
64080;BME280;51042;49.696;10.808;2023-12-22T02:01:41;97215.94;;;3.27;100.00
64080;BME280;51042;49.696;10.808;2023-12-22T02:04:09;97221.38;;;3.27;100.00
64080;BME280;51042;49.696;10.808;2023-12-22T02:06:34;97231.84;;;3.25;100.00
64080;BME280;51042;49.696;10.808;2023-12-22T02:09:01;97233.44;;;3.23;100.00
64080;BME280;51042;49.696;10.808;2023-12-22T02:11:26;97212.09;;;3.25;100.00
64080;BME280;51042;49.696;10.808;2023-12-22T02:13:51;97219.81;;;3.26;100.00
64080;BME280;51042;49.696;10.808;2023-12-22T02:16:18;97219.38;;;3.28;100.00
64080;BME280;51042;49.696;10.808;2023-12-22T02:18:46;97218.28;;;3.25;100.00
64080;BME280;51042;49.696;10.808;2023-12-22T02:21:12;97219.38;;;3.28;100.00
64080;BME280;51042;49.696;10.808;2023-12-22T02:23:37;97227.88;;;3.30;100.00
64080;BME280;51042;49.696;10.808;2023-12-22T02:26:06;97229.69;;;3.37;100.00
64080;BME280;51042;49.696;10.808;2023-12-22T02:28:33;97239.69;;;3.40;100.00
64080;BME280;51042;49.696;10.808;2023-12-22T02:31:02;97235.31;;;3.46;100.00
64080;BME280;51042;49.696;10.808;2023-12-22T02:33:28;97229.09;;;3.49;100.00
64080;BME280;51042;49.696;10.808;2023-12-22T02:35:54;97234.09;;;3.50;100.00
64080;BME280;51042;49.696;10.808;2023-12-22T02:38:22;97231.78;;;3.49;100.00
64080;BME280;51042;49.696;10.808;2023-12-22T02:40:49;97215.16;;;3.47;100.00
64080;BME280;51042;49.696;10.808;2023-12-22T02:43:14;97210.91;;;3.46;100.00
64080;BME280;51042;49.696;10.808;2023-12-22T02:45:39;97221.84;;;3.42;100.00
64080;BME280;51042;49.696;10.808;2023-12-22T02:48:04;97218.84;;;3.37;100.00
64080;BME280;51042;49.696;10.808;2023-12-22T02:50:30;97208.78;;;3.37;100.00
64080;BME280;51042;49.696;10.808;2023-12-22T02:52:55;97211.22;;;3.32;100.00
64080;BME280;51042;49.696;10.808;2023-12-22T02:55:20;97220.16;;;3.28;100.00
64080;BME280;51042;49.696;10.808;2023-12-22T02:57:45;97221.38;;;3.27;100.00
64080;BME280;51042;49.696;10.808;2023-12-22T03:00:10;97236.84;;;3.27;100.00
64080;BME280;51042;49.696;10.808;2023-12-22T03:02:36;97237.56;;;3.31;100.00
64080;BME280;51042;49.696;10.808;2023-12-22T03:05:01;97239.41;;;3.34;100.00
64080;BME280;51042;49.696;10.808;2023-12-22T03:07:26;97253.41;;;3.33;100.00
64080;BME280;51042;49.696;10.808;2023-12-22T03:09:51;97232.50;;;3.33;100.00
64080;BME280;51042;49.696;10.808;2023-12-22T03:12:17;97231.72;;;3.33;100.00
64080;BME280;51042;49.696;10.808;2023-12-22T03:14:42;97224.81;;;3.28;100.00
64080;BME280;51042;49.696;10.808;2023-12-22T03:17:07;97202.03;;;3.25;100.00
64080;BME280;51042;49.696;10.808;2023-12-22T03:19:33;97213.00;;;3.18;100.00
64080;BME280;51042;49.696;10.808;2023-12-22T03:21:58;97212.72;;;3.13;100.00
64080;BME280;51042;49.696;10.808;2023-12-22T03:24:24;97198.47;;;3.09;100.00
64080;BME280;51042;49.696;10.808;2023-12-22T03:26:49;97221.31;;;3.08;100.00
64080;BME280;51042;49.696;10.808;2023-12-22T03:29:15;97223.66;;;3.06;100.00
64080;BME280;51042;49.696;10.808;2023-12-22T03:31:40;97242.31;;;3.04;100.00
64080;BME280;51042;49.696;10.808;2023-12-22T03:34:05;97242.22;;;3.07;100.00
64080;BME280;51042;49.696;10.808;2023-12-22T03:36:31;97238.69;;;3.10;100.00
64080;BME280;51042;49.696;10.808;2023-12-22T03:38:56;97234.03;;;3.11;100.00
64080;BME280;51042;49.696;10.808;2023-12-22T03:41:21;97229.03;;;3.09;100.00
64080;BME280;51042;49.696;10.808;2023-12-22T03:43:46;97217.00;;;3.10;100.00
64080;BME280;51042;49.696;10.808;2023-12-22T03:46:11;97209.59;;;3.14;100.00
64080;BME280;51042;49.696;10.808;2023-12-22T03:48:36;97209.16;;;3.16;100.00
64080;BME280;51042;49.696;10.808;2023-12-22T03:51:02;97198.66;;;3.18;100.00
64080;BME280;51042;49.696;10.808;2023-12-22T03:53:27;97181.63;;;3.17;100.00
64080;BME280;51042;49.696;10.808;2023-12-22T03:55:52;97176.22;;;3.17;100.00
64080;BME280;51042;49.696;10.808;2023-12-22T03:58:17;97169.63;;;3.18;100.00
64080;BME280;51042;49.696;10.808;2023-12-22T04:00:42;97152.59;;;3.18;100.00
64080;BME280;51042;49.696;10.808;2023-12-22T04:03:07;97177.41;;;3.16;100.00
64080;BME280;51042;49.696;10.808;2023-12-22T04:05:33;97151.50;;;3.15;100.00
64080;BME280;51042;49.696;10.808;2023-12-22T04:07:58;97164.69;;;3.13;100.00
64080;BME280;51042;49.696;10.808;2023-12-22T04:10:23;97170.13;;;3.13;100.00
64080;BME280;51042;49.696;10.808;2023-12-22T04:12:48;97158.91;;;3.11;100.00
64080;BME280;51042;49.696;10.808;2023-12-22T04:15:13;97177.56;;;3.09;100.00
64080;BME280;51042;49.696;10.808;2023-12-22T04:17:38;97182.19;;;3.09;100.00
64080;BME280;51042;49.696;10.808;2023-12-22T04:20:04;97188.72;;;3.11;100.00
64080;BME280;51042;49.696;10.808;2023-12-22T04:22:30;97186.78;;;3.12;100.00
64080;BME280;51042;49.696;10.808;2023-12-22T04:24:55;97197.63;;;3.12;100.00
64080;BME280;51042;49.696;10.808;2023-12-22T04:27:20;97191.78;;;3.13;100.00
64080;BME280;51042;49.696;10.808;2023-12-22T04:29:46;97176.63;;;3.16;100.00
64080;BME280;51042;49.696;10.808;2023-12-22T04:32:11;97184.34;;;3.17;100.00
64080;BME280;51042;49.696;10.808;2023-12-22T04:34:36;97206.81;;;3.18;100.00
64080;BME280;51042;49.696;10.808;2023-12-22T04:37:01;97200.63;;;3.17;100.00
64080;BME280;51042;49.696;10.808;2023-12-22T04:39:26;97184.84;;;3.12;100.00
64080;BME280;51042;49.696;10.808;2023-12-22T04:41:51;97189.63;;;3.05;100.00
64080;BME280;51042;49.696;10.808;2023-12-22T04:44:17;97189.41;;;2.96;100.00
64080;BME280;51042;49.696;10.808;2023-12-22T04:46:42;97223.56;;;2.90;100.00
64080;BME280;51042;49.696;10.808;2023-12-22T04:49:07;97217.00;;;2.87;100.00
64080;BME280;51042;49.696;10.808;2023-12-22T04:51:32;97232.22;;;2.81;100.00
64080;BME280;51042;49.696;10.808;2023-12-22T04:53:57;97246.59;;;2.78;100.00
64080;BME280;51042;49.696;10.808;2023-12-22T04:56:22;97246.28;;;2.72;100.00
64080;BME280;51042;49.696;10.808;2023-12-22T04:58:47;97243.13;;;2.77;100.00
64080;BME280;51042;49.696;10.808;2023-12-22T05:01:13;97246.59;;;2.78;100.00
64080;BME280;51042;49.696;10.808;2023-12-22T05:03:38;97249.66;;;2.80;100.00
64080;BME280;51042;49.696;10.808;2023-12-22T05:06:03;97253.09;;;2.80;100.00
64080;BME280;51042;49.696;10.808;2023-12-22T05:08:29;97251.94;;;2.81;100.00
64080;BME280;51042;49.696;10.808;2023-12-22T05:10:54;97270.13;;;2.81;100.00
64080;BME280;51042;49.696;10.808;2023-12-22T05:13:19;97267.84;;;2.79;100.00
64080;BME280;51042;49.696;10.808;2023-12-22T05:15:44;97274.38;;;2.82;100.00
64080;BME280;51042;49.696;10.808;2023-12-22T05:18:10;97258.09;;;2.85;100.00
64080;BME280;51042;49.696;10.808;2023-12-22T05:20:35;97263.44;;;2.89;100.00
64080;BME280;51042;49.696;10.808;2023-12-22T05:23:00;97278.56;;;2.86;100.00
64080;BME280;51042;49.696;10.808;2023-12-22T05:25:26;97277.06;;;2.85;100.00
64080;BME280;51042;49.696;10.808;2023-12-22T05:27:51;97281.25;;;2.86;100.00
64080;BME280;51042;49.696;10.808;2023-12-22T05:30:17;97281.69;;;2.85;100.00
64080;BME280;51042;49.696;10.808;2023-12-22T05:32:42;97290.94;;;2.87;100.00
64080;BME280;51042;49.696;10.808;2023-12-22T05:35:08;97282.03;;;2.87;100.00
64080;BME280;51042;49.696;10.808;2023-12-22T05:37:35;97276.63;;;2.87;100.00
64080;BME280;51042;49.696;10.808;2023-12-22T05:40:00;97265.84;;;2.83;100.00
64080;BME280;51042;49.696;10.808;2023-12-22T05:42:25;97259.66;;;2.83;100.00
64080;BME280;51042;49.696;10.808;2023-12-22T05:44:50;97246.47;;;2.85;100.00
64080;BME280;51042;49.696;10.808;2023-12-22T05:47:16;97253.88;;;2.81;100.00
64080;BME280;51042;49.696;10.808;2023-12-22T05:49:41;97240.00;;;2.79;100.00
64080;BME280;51042;49.696;10.808;2023-12-22T05:52:06;97245.88;;;2.74;100.00
64080;BME280;51042;49.696;10.808;2023-12-22T05:54:31;97229.63;;;2.74;100.00
64080;BME280;51042;49.696;10.808;2023-12-22T05:56:56;97239.69;;;2.73;100.00
64080;BME280;51042;49.696;10.808;2023-12-22T05:59:22;97235.16;;;2.67;100.00
64080;BME280;51042;49.696;10.808;2023-12-22T06:01:47;97239.50;;;2.61;100.00
64080;BME280;51042;49.696;10.808;2023-12-22T06:04:12;97233.38;;;2.57;100.00
64080;BME280;51042;49.696;10.808;2023-12-22T06:06:38;97245.84;;;2.51;100.00
64080;BME280;51042;49.696;10.808;2023-12-22T06:09:04;97254.38;;;2.49;100.00
64080;BME280;51042;49.696;10.808;2023-12-22T06:11:29;97258.63;;;2.50;100.00
64080;BME280;51042;49.696;10.808;2023-12-22T06:13:54;97251.97;;;2.55;100.00
64080;BME280;51042;49.696;10.808;2023-12-22T06:16:19;97254.22;;;2.60;100.00
64080;BME280;51042;49.696;10.808;2023-12-22T06:18:45;97256.47;;;2.65;100.00
64080;BME280;51042;49.696;10.808;2023-12-22T06:21:10;97261.88;;;2.65;100.00
64080;BME280;51042;49.696;10.808;2023-12-22T06:23:36;97266.53;;;2.64;100.00
64080;BME280;51042;49.696;10.808;2023-12-22T06:26:01;97266.94;;;2.63;100.00
64080;BME280;51042;49.696;10.808;2023-12-22T06:28:27;97278.19;;;2.61;100.00
64080;BME280;51042;49.696;10.808;2023-12-22T06:30:52;97287.47;;;2.60;100.00
64080;BME280;51042;49.696;10.808;2023-12-22T06:33:17;97279.84;;;2.52;100.00
64080;BME280;51042;49.696;10.808;2023-12-22T06:35:43;97271.91;;;2.41;100.00
64080;BME280;51042;49.696;10.808;2023-12-22T06:38:10;97288.66;;;2.32;100.00
64080;BME280;51042;49.696;10.808;2023-12-22T06:40:36;97280.94;;;2.31;100.00
64080;BME280;51042;49.696;10.808;2023-12-22T06:43:01;97315.38;;;2.27;100.00
64080;BME280;51042;49.696;10.808;2023-12-22T06:45:26;97317.38;;;2.23;100.00
64080;BME280;51042;49.696;10.808;2023-12-22T06:47:51;97327.09;;;2.20;100.00
64080;BME280;51042;49.696;10.808;2023-12-22T06:50:17;97327.53;;;2.15;100.00
64080;BME280;51042;49.696;10.808;2023-12-22T06:52:42;97319.13;;;2.06;100.00
64080;BME280;51042;49.696;10.808;2023-12-22T06:55:07;97334.28;;;2.00;100.00
64080;BME280;51042;49.696;10.808;2023-12-22T06:57:32;97351.28;;;2.00;100.00
64080;BME280;51042;49.696;10.808;2023-12-22T06:59:57;97348.19;;;2.02;100.00
64080;BME280;51042;49.696;10.808;2023-12-22T07:02:23;97365.53;;;2.04;100.00
64080;BME280;51042;49.696;10.808;2023-12-22T07:07:32;97364.63;;;2.15;100.00
64080;BME280;51042;49.696;10.808;2023-12-22T07:09:57;97367.69;;;2.20;100.00
64080;BME280;51042;49.696;10.808;2023-12-22T07:12:22;97364.53;;;2.25;100.00
64080;BME280;51042;49.696;10.808;2023-12-22T07:14:48;97372.19;;;2.30;100.00
64080;BME280;51042;49.696;10.808;2023-12-22T07:17:13;97390.31;;;2.33;100.00
64080;BME280;51042;49.696;10.808;2023-12-22T07:19:38;97406.13;;;2.38;100.00
64080;BME280;51042;49.696;10.808;2023-12-22T07:22:03;97416.16;;;2.41;100.00
64080;BME280;51042;49.696;10.808;2023-12-22T07:24:29;97435.03;;;2.45;100.00
64080;BME280;51042;49.696;10.808;2023-12-22T07:26:54;97424.19;;;2.49;100.00
64080;BME280;51042;49.696;10.808;2023-12-22T07:29:19;97419.50;;;2.53;100.00
64080;BME280;51042;49.696;10.808;2023-12-22T07:31:45;97438.44;;;2.53;100.00
64080;BME280;51042;49.696;10.808;2023-12-22T07:34:10;97451.97;;;2.56;100.00
64080;BME280;51042;49.696;10.808;2023-12-22T07:36:35;97475.13;;;2.61;100.00
64080;BME280;51042;49.696;10.808;2023-12-22T07:39:00;97462.28;;;2.65;100.00
64080;BME280;51042;49.696;10.808;2023-12-22T07:41:25;97485.09;;;2.67;100.00
64080;BME280;51042;49.696;10.808;2023-12-22T07:43:50;97492.38;;;2.74;100.00
64080;BME280;51042;49.696;10.808;2023-12-22T07:46:16;97511.22;;;2.81;100.00
64080;BME280;51042;49.696;10.808;2023-12-22T07:48:41;97513.06;;;2.91;100.00
64080;BME280;51042;49.696;10.808;2023-12-22T07:51:06;97535.81;;;2.97;100.00
64080;BME280;51042;49.696;10.808;2023-12-22T07:53:32;97523.31;;;3.07;100.00
64080;BME280;51042;49.696;10.808;2023-12-22T07:55:57;97532.13;;;3.14;100.00
64080;BME280;51042;49.696;10.808;2023-12-22T07:58:24;97539.75;;;3.23;100.00
64080;BME280;51042;49.696;10.808;2023-12-22T08:00:49;97539.28;;;3.28;100.00
64080;BME280;51042;49.696;10.808;2023-12-22T08:03:14;97537.72;;;3.31;100.00
64080;BME280;51042;49.696;10.808;2023-12-22T08:05:39;97549.66;;;3.37;100.00
64080;BME280;51042;49.696;10.808;2023-12-22T08:08:04;97556.22;;;3.39;100.00
64080;BME280;51042;49.696;10.808;2023-12-22T08:10:29;97554.25;;;3.40;100.00
64080;BME280;51042;49.696;10.808;2023-12-22T08:12:55;97567.38;;;3.45;100.00
64080;BME280;51042;49.696;10.808;2023-12-22T08:15:20;97573.88;;;3.51;100.00
64080;BME280;51042;49.696;10.808;2023-12-22T08:17:45;97557.91;;;3.56;100.00
64080;BME280;51042;49.696;10.808;2023-12-22T08:20:11;97562.09;;;3.61;100.00
64080;BME280;51042;49.696;10.808;2023-12-22T08:22:36;97551.19;;;3.64;100.00
64080;BME280;51042;49.696;10.808;2023-12-22T08:25:01;97550.78;;;3.66;100.00
64080;BME280;51042;49.696;10.808;2023-12-22T08:27:26;97551.56;;;3.66;100.00
64080;BME280;51042;49.696;10.808;2023-12-22T08:29:51;97553.56;;;3.62;100.00
64080;BME280;51042;49.696;10.808;2023-12-22T08:32:17;97561.41;;;3.57;100.00
64080;BME280;51042;49.696;10.808;2023-12-22T08:34:42;97571.16;;;3.51;100.00
64080;BME280;51042;49.696;10.808;2023-12-22T08:37:07;97583.22;;;3.46;100.00
64080;BME280;51042;49.696;10.808;2023-12-22T08:39:32;97592.13;;;3.47;100.00
64080;BME280;51042;49.696;10.808;2023-12-22T08:41:57;97580.06;;;3.51;100.00
64080;BME280;51042;49.696;10.808;2023-12-22T08:44:22;97595.56;;;3.51;100.00
64080;BME280;51042;49.696;10.808;2023-12-22T08:46:48;97619.56;;;3.52;100.00
64080;BME280;51042;49.696;10.808;2023-12-22T08:49:13;97629.22;;;3.53;100.00
64080;BME280;51042;49.696;10.808;2023-12-22T08:51:40;97631.16;;;3.53;100.00
64080;BME280;51042;49.696;10.808;2023-12-22T08:54:06;97647.41;;;3.56;100.00
64080;BME280;51042;49.696;10.808;2023-12-22T08:56:31;97639.63;;;3.58;100.00
64080;BME280;51042;49.696;10.808;2023-12-22T08:58:56;97631.91;;;3.57;100.00
64080;BME280;51042;49.696;10.808;2023-12-22T09:01:25;97630.72;;;3.58;100.00
64080;BME280;51042;49.696;10.808;2023-12-22T09:03:50;97639.28;;;3.56;100.00
64080;BME280;51042;49.696;10.808;2023-12-22T09:06:16;97651.69;;;3.57;100.00
64080;BME280;51042;49.696;10.808;2023-12-22T09:08:41;97669.91;;;3.57;100.00
64080;BME280;51042;49.696;10.808;2023-12-22T09:11:07;97675.66;;;3.59;100.00
64080;BME280;51042;49.696;10.808;2023-12-22T09:13:33;97685.34;;;3.60;100.00
64080;BME280;51042;49.696;10.808;2023-12-22T09:15:58;97690.31;;;3.65;100.00
64080;BME280;51042;49.696;10.808;2023-12-22T09:18:23;97708.84;;;3.70;100.00
64080;BME280;51042;49.696;10.808;2023-12-22T09:20:48;97706.44;;;3.79;100.00
64080;BME280;51042;49.696;10.808;2023-12-22T09:23:14;97705.97;;;3.84;100.00
64080;BME280;51042;49.696;10.808;2023-12-22T09:25:39;97699.31;;;3.89;100.00
64080;BME280;51042;49.696;10.808;2023-12-22T09:28:04;97705.88;;;3.91;100.00
64080;BME280;51042;49.696;10.808;2023-12-22T09:30:29;97695.38;;;3.93;100.00
64080;BME280;51042;49.696;10.808;2023-12-22T09:32:55;97692.63;;;3.97;100.00
64080;BME280;51042;49.696;10.808;2023-12-22T09:35:20;97694.50;;;4.00;100.00
64080;BME280;51042;49.696;10.808;2023-12-22T09:37:45;97696.44;;;4.03;100.00
64080;BME280;51042;49.696;10.808;2023-12-22T09:40:10;97694.13;;;4.01;100.00
64080;BME280;51042;49.696;10.808;2023-12-22T09:42:37;97690.59;;;4.04;100.00
64080;BME280;51042;49.696;10.808;2023-12-22T09:45:02;97695.25;;;4.04;100.00
64080;BME280;51042;49.696;10.808;2023-12-22T09:47:29;97681.31;;;4.02;100.00
64080;BME280;51042;49.696;10.808;2023-12-22T09:49:55;97698.09;;;3.93;100.00
64080;BME280;51042;49.696;10.808;2023-12-22T09:52:21;97679.56;;;3.88;100.00
64080;BME280;51042;49.696;10.808;2023-12-22T09:54:47;97673.03;;;3.82;100.00
64080;BME280;51042;49.696;10.808;2023-12-22T09:57:13;97674.25;;;3.81;100.00
64080;BME280;51042;49.696;10.808;2023-12-22T09:59:38;97676.94;;;3.81;100.00
64080;BME280;51042;49.696;10.808;2023-12-22T10:02:04;97663.78;;;3.80;100.00
64080;BME280;51042;49.696;10.808;2023-12-22T10:04:30;97666.84;;;3.82;100.00
64080;BME280;51042;49.696;10.808;2023-12-22T10:06:57;97641.16;;;3.90;100.00
64080;BME280;51042;49.696;10.808;2023-12-22T10:09:25;97640.34;;;3.93;100.00
64080;BME280;51042;49.696;10.808;2023-12-22T10:11:52;97631.38;;;3.96;100.00
64080;BME280;51042;49.696;10.808;2023-12-22T10:14:18;97634.00;;;4.03;100.00
64080;BME280;51042;49.696;10.808;2023-12-22T10:16:48;97633.22;;;4.02;100.00
64080;BME280;51042;49.696;10.808;2023-12-22T10:19:13;97628.50;;;4.06;100.00
64080;BME280;51042;49.696;10.808;2023-12-22T10:21:39;97633.47;;;4.11;100.00
64080;BME280;51042;49.696;10.808;2023-12-22T10:24:04;97637.72;;;4.13;100.00
64080;BME280;51042;49.696;10.808;2023-12-22T10:26:29;97637.38;;;4.10;100.00
64080;BME280;51042;49.696;10.808;2023-12-22T10:28:54;97649.34;;;4.13;100.00
64080;BME280;51042;49.696;10.808;2023-12-22T10:31:19;97635.44;;;4.11;100.00
64080;BME280;51042;49.696;10.808;2023-12-22T10:33:45;97623.38;;;4.12;100.00
64080;BME280;51042;49.696;10.808;2023-12-22T10:36:10;97620.19;;;4.17;100.00
64080;BME280;51042;49.696;10.808;2023-12-22T10:38:35;97611.53;;;4.26;100.00
64080;BME280;51042;49.696;10.808;2023-12-22T10:41:03;97606.81;;;4.30;100.00
64080;BME280;51042;49.696;10.808;2023-12-22T10:43:30;97597.31;;;4.41;100.00
64080;BME280;51042;49.696;10.808;2023-12-22T10:45:55;97606.59;;;4.44;100.00
64080;BME280;51042;49.696;10.808;2023-12-22T10:48:21;97592.00;;;4.34;100.00
64080;BME280;51042;49.696;10.808;2023-12-22T10:50:46;97595.91;;;4.33;100.00
64080;BME280;51042;49.696;10.808;2023-12-22T10:53:12;97609.78;;;4.39;100.00
64080;BME280;51042;49.696;10.808;2023-12-22T10:55:37;97612.13;;;4.37;100.00
64080;BME280;51042;49.696;10.808;2023-12-22T10:58:03;97609.78;;;4.39;100.00
64080;BME280;51042;49.696;10.808;2023-12-22T11:00:28;97614.63;;;4.51;100.00
64080;BME280;51042;49.696;10.808;2023-12-22T11:02:55;97612.19;;;4.57;100.00
64080;BME280;51042;49.696;10.808;2023-12-22T11:05:22;97630.81;;;4.58;100.00
64080;BME280;51042;49.696;10.808;2023-12-22T11:07:50;97620.66;;;4.62;100.00
64080;BME280;51042;49.696;10.808;2023-12-22T11:10:18;97624.00;;;4.70;100.00
64080;BME280;51042;49.696;10.808;2023-12-22T11:12:44;97615.38;;;4.75;100.00
64080;BME280;51042;49.696;10.808;2023-12-22T11:15:11;97616.19;;;4.72;100.00
64080;BME280;51042;49.696;10.808;2023-12-22T11:17:37;97601.50;;;4.69;100.00
64080;BME280;51042;49.696;10.808;2023-12-22T11:20:05;97585.69;;;4.64;100.00
64080;BME280;51042;49.696;10.808;2023-12-22T11:22:31;97591.53;;;4.63;100.00
64080;BME280;51042;49.696;10.808;2023-12-22T11:24:57;97562.31;;;4.67;100.00
64080;BME280;51042;49.696;10.808;2023-12-22T11:27:23;97565.69;;;4.74;100.00
64080;BME280;51042;49.696;10.808;2023-12-22T11:29:50;97557.19;;;4.72;100.00
64080;BME280;51042;49.696;10.808;2023-12-22T11:32:16;97555.31;;;4.69;100.00
64080;BME280;51042;49.696;10.808;2023-12-22T11:34:42;97554.13;;;4.70;100.00
64080;BME280;51042;49.696;10.808;2023-12-22T11:37:07;97540.75;;;4.79;100.00
64080;BME280;51042;49.696;10.808;2023-12-22T11:39:33;97553.06;;;4.84;100.00
64080;BME280;51042;49.696;10.808;2023-12-22T11:41:58;97562.16;;;4.97;100.00
64080;BME280;51042;49.696;10.808;2023-12-22T11:44:23;97547.94;;;5.09;100.00
64080;BME280;51042;49.696;10.808;2023-12-22T11:46:49;97538.66;;;5.07;100.00
64080;BME280;51042;49.696;10.808;2023-12-22T11:49:14;97535.38;;;4.96;100.00
64080;BME280;51042;49.696;10.808;2023-12-22T11:51:39;97538.59;;;4.90;100.00
64080;BME280;51042;49.696;10.808;2023-12-22T11:54:24;97540.63;;;4.86;100.00
64080;BME280;51042;49.696;10.808;2023-12-22T11:56:50;97545.28;;;4.86;100.00
64080;BME280;51042;49.696;10.808;2023-12-22T11:59:16;97545.97;;;4.90;100.00
64080;BME280;51042;49.696;10.808;2023-12-22T12:01:41;97535.09;;;4.90;100.00
64080;BME280;51042;49.696;10.808;2023-12-22T12:04:06;97531.47;;;4.97;100.00
64080;BME280;51042;49.696;10.808;2023-12-22T12:06:32;97515.53;;;4.99;100.00
64080;BME280;51042;49.696;10.808;2023-12-22T12:09:03;97528.63;;;5.04;100.00
64080;BME280;51042;49.696;10.808;2023-12-22T12:14:13;97508.94;;;5.16;100.00
64080;BME280;51042;49.696;10.808;2023-12-22T12:16:39;97518.91;;;5.22;100.00
64080;BME280;51042;49.696;10.808;2023-12-22T12:19:07;97500.69;;;5.19;100.00
64080;BME280;51042;49.696;10.808;2023-12-22T12:21:32;97501.91;;;5.18;100.00
64080;BME280;51042;49.696;10.808;2023-12-22T12:23:58;97498.75;;;5.20;100.00
64080;BME280;51042;49.696;10.808;2023-12-22T12:26:23;97496.03;;;5.20;100.00
64080;BME280;51042;49.696;10.808;2023-12-22T12:28:50;97489.81;;;5.19;100.00
64080;BME280;51042;49.696;10.808;2023-12-22T12:31:18;97490.94;;;5.22;100.00
64080;BME280;51042;49.696;10.808;2023-12-22T12:33:44;97476.50;;;5.25;100.00
64080;BME280;51042;49.696;10.808;2023-12-22T12:36:09;97488.84;;;5.29;100.00
64080;BME280;51042;49.696;10.808;2023-12-22T12:38:54;97475.50;;;5.35;100.00
64080;BME280;51042;49.696;10.808;2023-12-22T12:41:28;97464.47;;;5.42;100.00
64080;BME280;51042;49.696;10.808;2023-12-22T12:43:54;97464.81;;;5.44;100.00
64080;BME280;51042;49.696;10.808;2023-12-22T12:46:19;97462.94;;;5.41;100.00